createdAt,value
2018-10-18T00:00:22.478Z,29.05
2018-10-18T00:00:55.039Z,27.58
2018-10-18T00:01:27.683Z,27.52
2018-10-18T00:02:00.251Z,27.95
2018-10-18T00:02:32.848Z,27.50
2018-10-18T00:03:05.454Z,28.32
2018-10-18T00:03:37.983Z,26.70
2018-10-18T00:04:10.514Z,28.65
2018-10-18T00:04:43.071Z,28.92
2018-10-18T00:05:16.419Z,30.43
2018-10-18T00:05:49.054Z,28.15
2018-10-18T00:06:21.637Z,27.93
2018-10-18T00:06:54.210Z,29.80
2018-10-18T00:07:26.790Z,27.60
2018-10-18T00:07:59.560Z,29.65
2018-10-18T00:08:32.119Z,29.40
2018-10-18T00:09:07.450Z,29.37
2018-10-18T00:09:40.018Z,27.55
2018-10-18T00:10:12.596Z,28.75
2018-10-18T00:10:45.441Z,29.05
2018-10-18T00:11:18.064Z,29.55
2018-10-18T00:11:50.734Z,28.42
2018-10-18T00:12:23.336Z,29.00
2018-10-18T00:12:55.892Z,28.83
2018-10-18T00:13:28.447Z,27.82
2018-10-18T00:14:01.029Z,28.17
2018-10-18T00:14:33.546Z,29.00
2018-10-18T00:15:06.869Z,29.12
2018-10-18T00:15:39.425Z,29.25
2018-10-18T00:16:12.059Z,28.77
2018-10-18T00:16:44.648Z,28.75
2018-10-18T00:17:22.994Z,27.70
2018-10-18T00:17:55.577Z,29.32
2018-10-18T00:18:28.150Z,28.87
2018-10-18T00:19:00.744Z,27.77
2018-10-18T00:19:33.347Z,29.35
2018-10-18T00:20:06.039Z,30.48
2018-10-18T00:20:38.583Z,29.48
2018-10-18T00:21:11.168Z,29.95
2018-10-18T00:21:43.743Z,28.47
2018-10-18T00:22:16.345Z,28.80
2018-10-18T00:22:48.890Z,29.25
2018-10-18T00:23:21.442Z,28.10
2018-10-18T00:23:54.025Z,29.10
2018-10-18T00:24:26.626Z,30.40
2018-10-18T00:24:59.189Z,28.62
2018-10-18T00:25:31.746Z,28.57
2018-10-18T00:26:04.699Z,27.80
2018-10-18T00:26:37.301Z,29.05
2018-10-18T00:27:09.882Z,28.02
2018-10-18T00:27:42.517Z,28.32
2018-10-18T00:28:15.102Z,29.80
2018-10-18T00:28:47.677Z,29.70
2018-10-18T00:29:20.260Z,29.85
2018-10-18T00:29:52.868Z,28.67
2018-10-18T00:30:25.455Z,29.70
2018-10-18T00:30:58.022Z,30.52
2018-10-18T00:31:30.566Z,29.50
2018-10-18T00:32:03.416Z,29.80
2018-10-18T00:32:35.987Z,29.23
2018-10-18T00:33:08.578Z,29.80
2018-10-18T00:33:41.126Z,29.20
2018-10-18T00:34:13.666Z,30.12
2018-10-18T00:34:46.238Z,30.40
2018-10-18T00:35:18.787Z,30.68
2018-10-18T00:35:51.390Z,31.48
2018-10-18T00:36:23.994Z,29.50
2018-10-18T00:36:56.570Z,30.88
2018-10-18T00:37:29.155Z,28.05
2018-10-18T00:38:01.727Z,26.50
2018-10-18T00:38:34.365Z,28.27
2018-10-18T00:39:09.329Z,27.75
2018-10-18T00:39:41.924Z,27.85
2018-10-18T00:40:14.527Z,27.52
2018-10-18T00:40:47.090Z,28.73
2018-10-18T00:41:19.642Z,28.40
2018-10-18T00:41:52.224Z,27.62
2018-10-18T00:42:24.798Z,27.95
2018-10-18T00:42:57.401Z,26.93
2018-10-18T00:43:29.944Z,28.23
2018-10-18T00:44:02.635Z,28.47
2018-10-18T00:44:35.189Z,28.65
2018-10-18T00:45:08.591Z,27.98
2018-10-18T00:45:41.159Z,27.20
2018-10-18T00:46:13.700Z,29.87
2018-10-18T00:46:46.281Z,28.65
2018-10-18T00:47:18.880Z,28.50
2018-10-18T00:47:51.561Z,27.52
2018-10-18T00:48:24.148Z,27.52
2018-10-18T00:48:56.695Z,29.63
2018-10-18T00:49:29.266Z,28.98
2018-10-18T00:50:01.944Z,25.90
2018-10-18T00:50:34.446Z,29.10
2018-10-18T00:51:07.035Z,27.07
2018-10-18T00:51:39.605Z,27.15
2018-10-18T00:52:12.155Z,28.07
2018-10-18T00:52:44.708Z,27.90
2018-10-18T00:53:17.287Z,26.90
2018-10-18T00:53:49.838Z,26.62
2018-10-18T00:54:22.408Z,26.23
2018-10-18T00:54:54.966Z,27.93
2018-10-18T00:55:27.552Z,26.02
2018-10-18T00:56:00.143Z,28.35
2018-10-18T00:56:32.683Z,28.20
2018-10-18T00:57:05.322Z,29.23
2018-10-18T00:57:38.293Z,26.00
2018-10-18T00:58:10.826Z,27.60
2018-10-18T00:58:43.371Z,26.37
2018-10-18T00:59:15.926Z,27.65
2018-10-18T00:59:48.514Z,27.80
2018-10-18T01:00:21.132Z,28.35
2018-10-18T01:00:53.682Z,28.10
2018-10-18T01:01:26.226Z,28.30
2018-10-18T01:01:58.808Z,28.52
2018-10-18T01:02:31.375Z,27.60
2018-10-18T01:03:04.204Z,27.52
2018-10-18T01:03:36.782Z,29.77
2018-10-18T01:04:09.334Z,27.87
2018-10-18T01:04:41.910Z,29.18
2018-10-18T01:05:14.498Z,28.60
2018-10-18T01:05:47.178Z,29.25
2018-10-18T01:06:19.783Z,29.12
2018-10-18T01:06:52.332Z,28.85
2018-10-18T01:07:24.895Z,28.73
2018-10-18T01:07:57.486Z,30.25
2018-10-18T01:08:30.050Z,31.48
2018-10-18T01:09:02.914Z,30.17
2018-10-18T01:09:35.504Z,28.60
2018-10-18T01:10:08.119Z,30.35
2018-10-18T01:10:40.739Z,30.37
2018-10-18T01:11:13.359Z,30.82
2018-10-18T01:11:45.931Z,31.37
2018-10-18T01:12:18.593Z,30.45
2018-10-18T01:12:51.102Z,31.27
2018-10-18T01:13:23.690Z,31.45
2018-10-18T01:13:56.322Z,31.90
2018-10-18T01:14:28.930Z,31.00
2018-10-18T01:15:01.500Z,32.33
2018-10-18T01:15:34.079Z,30.65
2018-10-18T01:16:06.676Z,30.88
2018-10-18T01:16:39.284Z,30.85
2018-10-18T01:17:11.843Z,31.73
2018-10-18T01:17:44.442Z,32.08
2018-10-18T01:18:17.134Z,31.23
2018-10-18T01:18:49.625Z,32.48
2018-10-18T01:19:22.216Z,32.78
2018-10-18T01:19:54.814Z,29.20
2018-10-18T01:20:27.353Z,32.55
2018-10-18T01:20:59.902Z,34.67
2018-10-18T01:21:32.455Z,33.35
2018-10-18T01:22:06.074Z,32.63
2018-10-18T01:23:41.904Z,31.05
2018-10-18T01:24:14.462Z,31.68
2018-10-18T01:24:47.022Z,31.65
2018-10-18T01:25:19.570Z,34.40
2018-10-18T01:25:52.179Z,35.35
2018-10-18T01:26:24.778Z,36.05
2018-10-18T01:26:57.372Z,36.03
2018-10-18T01:27:29.984Z,37.63
2018-10-18T01:28:02.544Z,35.65
2018-10-18T01:28:37.259Z,34.75
2018-10-18T01:29:11.677Z,33.02
2018-10-18T01:29:46.361Z,33.83
2018-10-18T01:30:20.214Z,33.10
2018-10-18T01:30:55.055Z,33.25
2018-10-18T01:31:29.117Z,33.15
2018-10-18T01:32:01.711Z,33.80
2018-10-18T01:32:36.622Z,30.85
2018-10-18T01:33:09.182Z,29.90
2018-10-18T01:33:41.768Z,33.00
2018-10-18T01:34:14.563Z,30.23
2018-10-18T01:34:47.136Z,31.00
2018-10-18T01:35:19.712Z,29.67
2018-10-18T01:35:52.288Z,32.38
2018-10-18T01:36:25.110Z,32.25
2018-10-18T01:36:57.687Z,30.70
2018-10-18T01:37:30.235Z,32.23
2018-10-18T01:38:04.170Z,30.82
2018-10-18T01:38:36.739Z,31.00
2018-10-18T01:39:09.613Z,29.98
2018-10-18T01:39:42.219Z,29.07
2018-10-18T01:40:14.763Z,31.23
2018-10-18T01:40:47.343Z,29.72
2018-10-18T01:41:19.925Z,31.25
2018-10-18T01:41:52.481Z,29.12
2018-10-18T01:42:25.034Z,30.55
2018-10-18T01:42:57.644Z,32.15
2018-10-18T01:43:30.262Z,30.90
2018-10-18T01:44:02.896Z,31.65
2018-10-18T01:44:35.524Z,29.95
2018-10-18T01:45:08.124Z,31.37
2018-10-18T01:45:40.662Z,32.00
2018-10-18T01:46:13.247Z,31.27
2018-10-18T01:46:45.812Z,31.20
2018-10-18T01:47:18.371Z,31.00
2018-10-18T01:47:50.922Z,31.00
2018-10-18T01:48:23.466Z,32.42
2018-10-18T01:48:56.128Z,30.32
2018-10-18T01:49:28.694Z,31.33
2018-10-18T01:50:01.328Z,32.33
2018-10-18T01:50:33.931Z,31.23
2018-10-18T01:51:06.499Z,32.03
2018-10-18T01:52:42.402Z,32.00
2018-10-18T01:53:14.981Z,30.48
2018-10-18T01:53:47.536Z,31.05
2018-10-18T01:54:20.126Z,30.62
2018-10-18T01:54:52.654Z,30.60
2018-10-18T01:55:25.202Z,30.40
2018-10-18T01:55:57.856Z,31.70
2018-10-18T01:56:30.426Z,31.95
2018-10-18T01:57:03.007Z,30.17
2018-10-18T01:57:35.590Z,30.88
2018-10-18T01:58:08.132Z,30.50
2018-10-18T01:58:40.701Z,30.05
2018-10-18T01:59:13.303Z,30.92
2018-10-18T01:59:45.866Z,31.05
2018-10-18T02:00:18.503Z,31.23
2018-10-18T02:00:51.003Z,29.75
2018-10-18T02:01:23.574Z,31.52
2018-10-18T02:01:56.133Z,32.63
2018-10-18T02:02:28.718Z,33.42
2018-10-18T02:03:01.317Z,32.08
2018-10-18T02:03:33.877Z,31.40
2018-10-18T02:04:06.466Z,33.48
2018-10-18T02:04:39.029Z,31.62
2018-10-18T02:05:11.723Z,33.45
2018-10-18T02:05:44.307Z,33.02
2018-10-18T02:06:16.936Z,32.78
2018-10-18T02:06:49.518Z,33.20
2018-10-18T02:07:22.058Z,32.35
2018-10-18T02:07:54.688Z,32.42
2018-10-18T02:08:27.257Z,32.08
2018-10-18T02:08:59.837Z,32.40
2018-10-18T02:09:32.408Z,31.55
2018-10-18T02:10:05.957Z,31.93
2018-10-18T02:10:38.535Z,32.05
2018-10-18T02:11:11.083Z,32.40
2018-10-18T02:11:43.667Z,32.40
2018-10-18T02:12:16.316Z,31.20
2018-10-18T02:12:48.874Z,33.08
2018-10-18T02:13:21.426Z,31.62
2018-10-18T02:13:54.014Z,33.25
2018-10-18T02:14:26.919Z,34.92
2018-10-18T02:14:59.528Z,32.28
2018-10-18T02:15:32.108Z,33.50
2018-10-18T02:16:05.010Z,32.55
2018-10-18T02:16:37.884Z,34.58
2018-10-18T02:17:10.434Z,31.48
2018-10-18T02:17:42.995Z,30.85
2018-10-18T02:18:15.618Z,31.25
2018-10-18T02:18:48.163Z,33.00
2018-10-18T02:19:20.847Z,31.82
2018-10-18T02:19:53.364Z,31.05
2018-10-18T02:20:25.957Z,30.37
2018-10-18T02:20:58.572Z,31.35
2018-10-18T02:21:31.174Z,30.50
2018-10-18T02:22:03.802Z,30.35
2018-10-18T02:22:36.347Z,33.75
2018-10-18T02:23:08.904Z,34.98
2018-10-18T02:23:41.486Z,34.38
2018-10-18T02:24:14.117Z,34.95
2018-10-18T02:24:46.622Z,32.35
2018-10-18T02:25:19.233Z,34.80
2018-10-18T02:25:51.819Z,34.67
2018-10-18T02:26:24.434Z,33.50
2018-10-18T02:26:57.066Z,34.10
2018-10-18T02:27:29.652Z,34.55
2018-10-18T02:28:02.263Z,32.48
2018-10-18T02:28:34.810Z,35.48
2018-10-18T02:29:07.404Z,36.15
2018-10-18T02:29:39.965Z,38.70
2018-10-18T02:30:12.645Z,37.78
2018-10-18T02:30:45.114Z,38.28
2018-10-18T02:31:17.675Z,36.98
2018-10-18T02:31:50.224Z,38.17
2018-10-18T02:32:22.789Z,39.92
2018-10-18T02:32:55.332Z,36.40
2018-10-18T02:33:27.887Z,37.80
2018-10-18T02:34:00.442Z,38.20
2018-10-18T02:34:33.016Z,38.70
2018-10-18T02:35:05.741Z,39.50
2018-10-18T02:35:38.371Z,37.42
2018-10-18T02:36:11.022Z,38.45
2018-10-18T02:36:43.535Z,42.03
2018-10-18T02:37:16.090Z,40.73
2018-10-18T02:37:48.671Z,42.25
2018-10-18T02:38:21.272Z,42.43
2018-10-18T02:38:53.852Z,41.77
2018-10-18T02:39:26.437Z,39.73
2018-10-18T02:39:58.993Z,37.93
2018-10-18T02:40:31.570Z,40.43
2018-10-18T02:41:04.426Z,39.33
2018-10-18T02:41:36.998Z,38.50
2018-10-18T02:42:09.640Z,39.50
2018-10-18T02:42:42.119Z,40.50
2018-10-18T02:43:14.718Z,42.23
2018-10-18T02:43:47.305Z,44.35
2018-10-18T02:44:19.850Z,47.20
2018-10-18T02:44:52.438Z,45.35
2018-10-18T02:45:25.036Z,47.50
2018-10-18T02:45:57.591Z,49.05
2018-10-18T02:46:30.171Z,47.40
2018-10-18T02:47:02.791Z,46.98
2018-10-18T02:47:35.385Z,48.45
2018-10-18T02:48:08.047Z,50.08
2018-10-18T02:48:40.608Z,47.80
2018-10-18T02:49:13.163Z,49.27
2018-10-18T02:49:45.717Z,50.40
2018-10-18T02:50:18.267Z,49.20
2018-10-18T02:50:50.840Z,49.98
2018-10-18T02:51:23.448Z,47.40
2018-10-18T02:51:55.998Z,48.40
2018-10-18T02:52:28.602Z,50.10
2018-10-18T02:53:01.210Z,48.50
2018-10-18T02:53:33.783Z,47.75
2018-10-18T02:54:06.417Z,49.08
2018-10-18T02:54:38.934Z,45.83
2018-10-18T02:55:11.520Z,46.65
2018-10-18T02:55:44.086Z,48.95
2018-10-18T02:56:16.645Z,49.55
2018-10-18T02:56:49.226Z,49.55
2018-10-18T02:57:21.770Z,49.45
2018-10-18T02:57:54.327Z,52.27
2018-10-18T02:58:26.900Z,49.67
2018-10-18T02:58:59.466Z,52.62
2018-10-18T02:59:32.063Z,50.38
2018-10-18T03:00:05.589Z,51.77
2018-10-18T03:00:38.176Z,50.05
2018-10-18T03:01:10.765Z,50.40
2018-10-18T03:01:43.352Z,50.92
2018-10-18T03:02:15.926Z,50.75
2018-10-18T03:02:48.524Z,51.65
2018-10-18T03:03:21.092Z,51.05
2018-10-18T03:03:53.670Z,50.92
2018-10-18T03:04:26.256Z,49.18
2018-10-18T03:04:58.846Z,50.15
2018-10-18T03:05:31.458Z,47.93
2018-10-18T03:06:04.137Z,48.68
2018-10-18T03:06:36.702Z,50.12
2018-10-18T03:07:09.271Z,49.70
2018-10-18T03:07:41.831Z,52.38
2018-10-18T03:08:14.387Z,50.60
2018-10-18T03:08:46.976Z,49.98
2018-10-18T03:09:19.568Z,52.25
2018-10-18T03:09:52.119Z,49.45
2018-10-18T03:10:24.724Z,51.08
2018-10-18T03:10:57.306Z,50.88
2018-10-18T03:11:29.891Z,51.13
2018-10-18T03:12:02.538Z,51.60
2018-10-18T03:12:35.331Z,51.63
2018-10-18T03:13:07.870Z,48.50
2018-10-18T03:13:40.446Z,49.55
2018-10-18T03:14:12.982Z,51.90
2018-10-18T03:14:45.580Z,50.60
2018-10-18T03:15:18.172Z,48.13
2018-10-18T03:15:50.763Z,51.95
2018-10-18T03:16:23.351Z,48.83
2018-10-18T03:16:55.923Z,48.80
2018-10-18T03:17:28.508Z,52.83
2018-10-18T03:18:01.094Z,52.00
2018-10-18T03:18:33.694Z,51.05
2018-10-18T03:19:06.291Z,54.55
2018-10-18T03:19:38.919Z,56.50
2018-10-18T03:20:11.463Z,55.92
2018-10-18T03:20:44.052Z,55.58
2018-10-18T03:21:16.629Z,56.08
2018-10-18T03:21:49.270Z,57.03
2018-10-18T03:22:21.802Z,52.93
2018-10-18T03:22:54.351Z,52.90
2018-10-18T03:23:26.936Z,51.42
2018-10-18T03:23:59.564Z,51.18
2018-10-18T03:24:32.115Z,50.73
2018-10-18T03:25:05.632Z,52.05
2018-10-18T03:25:38.222Z,48.58
2018-10-18T03:26:10.790Z,48.80
2018-10-18T03:26:43.380Z,50.17
2018-10-18T03:27:15.935Z,50.92
2018-10-18T03:27:48.532Z,51.80
2018-10-18T03:28:21.122Z,49.48
2018-10-18T03:28:53.862Z,51.75
2018-10-18T03:29:26.511Z,49.35
2018-10-18T03:29:59.144Z,49.10
2018-10-18T03:30:31.730Z,47.80
2018-10-18T03:31:04.349Z,48.95
2018-10-18T03:31:36.955Z,48.15
2018-10-18T03:32:09.520Z,46.85
2018-10-18T03:32:42.128Z,50.17
2018-10-18T03:33:14.686Z,49.42
2018-10-18T03:33:47.268Z,50.38
2018-10-18T03:34:19.842Z,48.50
2018-10-18T03:34:52.601Z,48.85
2018-10-18T03:35:25.151Z,49.33
2018-10-18T03:35:57.821Z,47.08
2018-10-18T03:36:30.450Z,52.33
2018-10-18T03:37:03.084Z,51.50
2018-10-18T03:37:35.717Z,52.48
2018-10-18T03:38:08.314Z,52.48
2018-10-18T03:38:40.928Z,50.92
2018-10-18T03:39:13.531Z,51.00
2018-10-18T03:39:46.127Z,50.85
2018-10-18T03:40:18.736Z,48.75
2018-10-18T03:40:51.330Z,50.67
2018-10-18T03:41:23.970Z,51.53
2018-10-18T03:41:56.582Z,50.58
2018-10-18T03:42:29.170Z,50.58
2018-10-18T03:43:01.804Z,51.90
2018-10-18T03:43:34.410Z,51.08
2018-10-18T03:44:07.022Z,50.43
2018-10-18T03:44:39.634Z,48.68
2018-10-18T03:45:12.223Z,50.92
2018-10-18T03:45:44.824Z,49.88
2018-10-18T03:46:17.425Z,49.93
2018-10-18T03:46:50.092Z,52.80
2018-10-18T03:47:22.691Z,50.73
2018-10-18T03:47:55.325Z,52.20
2018-10-18T03:48:27.899Z,48.78
2018-10-18T03:49:00.658Z,49.98
2018-10-18T03:49:33.245Z,52.90
2018-10-18T03:50:05.873Z,53.13
2018-10-18T03:50:38.447Z,50.85
2018-10-18T03:51:11.052Z,50.83
2018-10-18T03:51:43.642Z,50.08
2018-10-18T03:52:16.252Z,51.13
2018-10-18T03:52:48.850Z,49.93
2018-10-18T03:53:21.426Z,49.25
2018-10-18T03:53:54.079Z,48.98
2018-10-18T03:54:26.682Z,50.28
2018-10-18T03:54:59.279Z,49.05
2018-10-18T03:55:31.906Z,52.05
2018-10-18T03:56:04.787Z,49.73
2018-10-18T03:56:37.379Z,48.78
2018-10-18T03:57:09.999Z,48.02
2018-10-18T03:57:42.644Z,47.27
2018-10-18T03:58:15.207Z,46.85
2018-10-18T03:58:47.763Z,46.63
2018-10-18T03:59:20.415Z,46.05
2018-10-18T03:59:53.070Z,45.85
2018-10-18T04:00:25.636Z,46.80
2018-10-18T04:00:58.211Z,48.02
2018-10-18T04:01:30.827Z,44.50
2018-10-18T04:02:03.459Z,46.65
2018-10-18T04:02:36.134Z,46.42
2018-10-18T04:03:08.726Z,47.17
2018-10-18T04:03:41.289Z,47.85
2018-10-18T04:04:13.907Z,44.85
2018-10-18T04:04:46.527Z,47.60
2018-10-18T04:05:19.163Z,46.95
2018-10-18T04:05:51.732Z,49.75
2018-10-18T04:06:24.352Z,46.50
2018-10-18T04:06:56.939Z,47.78
2018-10-18T04:07:29.507Z,51.08
2018-10-18T04:08:02.152Z,45.70
2018-10-18T04:08:34.730Z,47.50
2018-10-18T04:09:08.882Z,47.27
2018-10-18T04:09:41.459Z,45.50
2018-10-18T04:10:14.092Z,48.33
2018-10-18T04:10:46.683Z,44.48
2018-10-18T04:11:19.287Z,46.48
2018-10-18T04:11:51.875Z,46.20
2018-10-18T04:12:24.480Z,49.20
2018-10-18T04:12:57.174Z,46.73
2018-10-18T04:13:29.696Z,47.10
2018-10-18T04:14:02.307Z,45.17
2018-10-18T04:14:34.899Z,44.60
2018-10-18T04:15:07.535Z,43.00
2018-10-18T04:15:40.179Z,45.40
2018-10-18T04:16:12.848Z,45.20
2018-10-18T04:16:45.407Z,44.35
2018-10-18T04:17:18.075Z,44.67
2018-10-18T04:17:50.729Z,44.15
2018-10-18T04:18:23.358Z,45.08
2018-10-18T04:18:55.913Z,43.28
2018-10-18T04:19:28.528Z,44.83
2018-10-18T04:20:01.126Z,43.00
2018-10-18T04:20:33.710Z,44.67
2018-10-18T04:21:06.760Z,43.40
2018-10-18T04:21:39.339Z,41.80
2018-10-18T04:22:11.983Z,44.73
2018-10-18T04:22:44.604Z,42.80
2018-10-18T04:23:24.548Z,41.33
2018-10-18T04:23:57.252Z,42.40
2018-10-18T04:24:29.819Z,40.17
2018-10-18T04:25:02.788Z,42.85
2018-10-18T04:25:35.421Z,42.40
2018-10-18T04:26:08.036Z,41.90
2018-10-18T04:26:40.639Z,40.50
2018-10-18T04:27:13.249Z,42.45
2018-10-18T04:27:45.823Z,42.98
2018-10-18T04:28:18.454Z,40.92
2018-10-18T04:28:51.107Z,45.83
2018-10-18T04:29:23.776Z,46.05
2018-10-18T04:29:56.483Z,45.83
2018-10-18T04:30:29.078Z,47.90
2018-10-18T04:31:02.810Z,44.53
2018-10-18T04:31:35.469Z,46.58
2018-10-18T04:32:08.060Z,47.25
2018-10-18T04:32:40.643Z,47.62
2018-10-18T04:33:13.231Z,45.92
2018-10-18T04:33:45.827Z,45.15
2018-10-18T04:34:18.411Z,46.35
2018-10-18T04:34:50.988Z,43.95
2018-10-18T04:35:23.595Z,45.25
2018-10-18T04:35:56.298Z,44.75
2018-10-18T04:36:28.815Z,44.45
2018-10-18T04:37:01.446Z,46.40
2018-10-18T04:37:34.164Z,45.35
2018-10-18T04:38:06.675Z,46.45
2018-10-18T04:38:39.296Z,43.10
2018-10-18T04:39:12.892Z,42.95
2018-10-18T04:39:45.523Z,44.63
2018-10-18T04:40:18.160Z,45.95
2018-10-18T04:40:50.776Z,44.33
2018-10-18T04:41:23.379Z,49.20
2018-10-18T04:41:55.985Z,45.75
2018-10-18T04:42:28.609Z,46.18
2018-10-18T04:43:01.211Z,46.23
2018-10-18T04:43:33.815Z,47.10
2018-10-18T04:44:06.457Z,47.65
2018-10-18T04:44:39.036Z,45.58
2018-10-18T04:45:11.615Z,44.08
2018-10-18T04:45:44.232Z,44.23
2018-10-18T04:46:16.807Z,45.92
2018-10-18T04:46:49.417Z,45.25
2018-10-18T04:47:22.071Z,43.80
2018-10-18T04:47:54.803Z,44.55
2018-10-18T04:48:27.427Z,43.25
2018-10-18T04:48:59.966Z,45.80
2018-10-18T04:49:32.548Z,43.87
2018-10-18T04:50:06.177Z,43.02
2018-10-18T04:50:38.783Z,42.45
2018-10-18T04:51:11.400Z,47.60
2018-10-18T04:51:43.990Z,42.80
2018-10-18T04:52:16.571Z,42.53
2018-10-18T04:52:49.166Z,43.70
2018-10-18T04:53:21.767Z,43.10
2018-10-18T04:53:54.344Z,42.75
2018-10-18T04:54:26.930Z,44.83
2018-10-18T04:54:59.541Z,43.73
2018-10-18T04:55:32.237Z,45.50
2018-10-18T04:56:04.928Z,42.55
2018-10-18T04:56:37.518Z,44.98
2018-10-18T04:57:10.103Z,46.18
2018-10-18T04:57:42.716Z,44.73
2018-10-18T04:58:15.329Z,46.02
2018-10-18T04:58:47.983Z,45.12
2018-10-18T04:59:20.558Z,46.28
2018-10-18T04:59:53.164Z,45.55
2018-10-18T05:00:25.811Z,44.67
2018-10-18T05:00:58.427Z,44.25
2018-10-18T05:01:31.017Z,45.15
2018-10-18T05:02:04.123Z,44.83
2018-10-18T05:02:36.749Z,42.78
2018-10-18T05:03:09.319Z,42.98
2018-10-18T05:03:41.915Z,42.67
2018-10-18T05:04:14.510Z,41.70
2018-10-18T05:04:58.485Z,45.05
2018-10-18T05:05:42.426Z,42.90
2018-10-18T05:06:15.034Z,41.58
2018-10-18T05:06:47.667Z,41.90
2018-10-18T05:07:20.320Z,41.40
2018-10-18T05:07:52.838Z,44.08
2018-10-18T05:08:26.289Z,45.05
2018-10-18T05:08:58.871Z,40.35
2018-10-18T05:09:31.501Z,42.10
2018-10-18T05:10:04.631Z,46.00
2018-10-18T05:10:37.208Z,44.93
2018-10-18T05:11:09.825Z,47.67
2018-10-18T05:11:42.402Z,45.67
2018-10-18T05:12:14.968Z,48.38
2018-10-18T05:12:47.709Z,50.48
2018-10-18T05:13:20.301Z,48.60
2018-10-18T05:13:52.832Z,48.13
2018-10-18T05:14:25.430Z,51.18
2018-10-18T05:14:58.042Z,46.53
2018-10-18T05:15:30.634Z,46.55
2018-10-18T05:16:03.283Z,47.95
2018-10-18T05:16:35.855Z,46.35
2018-10-18T05:17:08.427Z,44.75
2018-10-18T05:17:41.077Z,45.20
2018-10-18T05:18:13.727Z,46.80
2018-10-18T05:18:48.731Z,46.28
2018-10-18T05:19:24.174Z,45.33
2018-10-18T05:19:59.642Z,45.85
2018-10-18T05:20:35.858Z,46.40
2018-10-18T05:21:11.490Z,45.28
2018-10-18T05:21:46.602Z,45.35
2018-10-18T05:22:22.234Z,45.85
2018-10-18T05:22:56.679Z,47.08
2018-10-18T05:23:31.162Z,44.15
2018-10-18T05:24:04.191Z,45.52
2018-10-18T05:24:36.768Z,45.33
2018-10-18T05:25:09.432Z,44.13
2018-10-18T05:25:42.314Z,44.40
2018-10-18T05:26:14.831Z,44.75
2018-10-18T05:26:47.430Z,42.05
2018-10-18T05:27:20.049Z,42.08
2018-10-18T05:27:52.655Z,43.80
2018-10-18T05:28:25.348Z,41.50
2018-10-18T05:28:57.918Z,42.08
2018-10-18T05:29:30.508Z,41.55
2018-10-18T05:30:03.175Z,40.90
2018-10-18T05:30:35.794Z,42.78
2018-10-18T05:31:08.455Z,43.60
2018-10-18T05:31:41.085Z,41.65
2018-10-18T05:32:13.610Z,43.05
2018-10-18T05:32:46.215Z,42.33
2018-10-18T05:33:18.827Z,43.02
2018-10-18T05:33:51.452Z,41.68
2018-10-18T05:34:24.052Z,41.35
2018-10-18T05:34:56.639Z,44.80
2018-10-18T05:35:30.856Z,42.55
2018-10-18T05:36:03.604Z,42.33
2018-10-18T05:36:36.194Z,41.60
2018-10-18T05:37:08.811Z,45.43
2018-10-18T05:37:41.387Z,42.00
2018-10-18T05:38:19.892Z,41.85
2018-10-18T05:38:52.458Z,44.67
2018-10-18T05:39:25.081Z,43.45
2018-10-18T05:39:57.679Z,41.35
2018-10-18T05:40:30.286Z,42.43
2018-10-18T05:41:02.907Z,43.55
2018-10-18T05:41:35.445Z,43.70
2018-10-18T05:42:07.995Z,43.35
2018-10-18T05:42:40.561Z,42.10
2018-10-18T05:43:13.187Z,42.88
2018-10-18T05:43:45.726Z,45.08
2018-10-18T05:44:18.255Z,46.25
2018-10-18T05:44:50.920Z,44.63
2018-10-18T05:45:23.533Z,47.13
2018-10-18T05:45:56.122Z,45.45
2018-10-18T05:46:28.721Z,45.38
2018-10-18T05:47:01.394Z,43.98
2018-10-18T05:47:33.900Z,43.45
2018-10-18T05:48:06.475Z,45.20
2018-10-18T05:48:39.102Z,44.85
2018-10-18T05:49:11.718Z,42.38
2018-10-18T05:49:44.350Z,45.23
2018-10-18T05:50:16.947Z,43.58
2018-10-18T05:50:49.629Z,47.90
2018-10-18T05:51:22.179Z,42.80
2018-10-18T05:51:54.775Z,46.20
2018-10-18T05:52:27.335Z,45.58
2018-10-18T05:53:00.023Z,44.80
2018-10-18T05:53:32.617Z,45.25
2018-10-18T05:54:05.240Z,43.23
2018-10-18T05:54:37.810Z,45.20
2018-10-18T05:55:11.330Z,45.50
2018-10-18T05:55:43.966Z,46.28
2018-10-18T05:56:16.573Z,45.15
2018-10-18T05:56:49.184Z,45.17
2018-10-18T05:57:21.768Z,44.00
2018-10-18T05:57:54.351Z,45.55
2018-10-18T05:58:26.933Z,44.65
2018-10-18T05:58:59.526Z,45.20
2018-10-18T05:59:32.591Z,45.88
2018-10-18T06:00:08.002Z,46.88
2018-10-18T06:00:40.613Z,45.15
2018-10-18T06:01:13.300Z,45.73
2018-10-18T06:01:45.944Z,43.70
2018-10-18T06:02:18.526Z,47.15
2018-10-18T06:02:51.207Z,45.38
2018-10-18T06:03:23.820Z,45.75
2018-10-18T06:03:56.424Z,45.83
2018-10-18T06:04:29.147Z,45.43
2018-10-18T06:05:02.943Z,46.23
2018-10-18T06:05:35.602Z,45.30
2018-10-18T06:06:08.261Z,45.90
2018-10-18T06:06:40.976Z,45.40
2018-10-18T06:07:14.033Z,46.73
2018-10-18T06:07:47.284Z,45.63
2018-10-18T06:08:20.391Z,47.48
2018-10-18T06:08:53.010Z,46.85
2018-10-18T06:09:30.192Z,45.38
2018-10-18T06:10:03.655Z,45.20
2018-10-18T06:10:47.427Z,48.30
2018-10-18T06:11:27.566Z,45.05
2018-10-18T06:12:00.327Z,44.55
2018-10-18T06:12:32.956Z,47.98
2018-10-18T06:13:05.891Z,45.73
2018-10-18T06:13:38.499Z,46.70
2018-10-18T06:14:11.080Z,47.98
2018-10-18T06:14:43.664Z,45.43
2018-10-18T06:15:16.247Z,47.30
2018-10-18T06:15:48.918Z,44.93
2018-10-18T06:16:22.475Z,48.30
2018-10-18T06:16:55.082Z,47.00
2018-10-18T06:17:27.647Z,46.65
2018-10-18T06:18:00.264Z,48.98
2018-10-18T06:18:32.924Z,48.60
2018-10-18T06:19:05.616Z,49.85
2018-10-18T06:19:38.167Z,48.78
2018-10-18T06:20:12.036Z,50.00
2018-10-18T06:20:44.762Z,48.10
2018-10-18T06:21:17.411Z,47.38
2018-10-18T06:21:50.011Z,47.27
2018-10-18T06:22:22.623Z,46.25
2018-10-18T06:22:55.645Z,47.62
2018-10-18T06:23:30.088Z,47.15
2018-10-18T06:24:03.173Z,48.00
2018-10-18T06:24:36.772Z,49.10
2018-10-18T06:25:10.889Z,47.38
2018-10-18T06:25:43.396Z,48.70
2018-10-18T06:26:16.657Z,49.55
2018-10-18T06:26:49.412Z,48.05
2018-10-18T06:27:22.221Z,49.48
2018-10-18T06:27:54.835Z,48.10
2018-10-18T06:28:27.483Z,48.68
2018-10-18T06:29:00.738Z,49.18
2018-10-18T06:29:33.535Z,47.53
2018-10-18T06:30:08.519Z,47.65
2018-10-18T06:30:41.155Z,47.05
2018-10-18T06:31:13.864Z,45.43
2018-10-18T06:31:46.476Z,42.48
2018-10-18T06:32:19.101Z,45.52
2018-10-18T06:32:51.777Z,47.58
2018-10-18T06:33:24.401Z,50.10
2018-10-18T06:33:56.995Z,48.90
2018-10-18T06:34:29.997Z,50.98
2018-10-18T06:35:02.695Z,48.70
2018-10-18T06:35:35.335Z,49.67
2018-10-18T06:36:07.931Z,50.52
2018-10-18T06:36:40.525Z,49.75
2018-10-18T06:37:13.221Z,48.78
2018-10-18T06:37:45.751Z,47.67
2018-10-18T06:38:18.387Z,44.93
2018-10-18T06:38:51.210Z,47.17
2018-10-18T06:39:23.877Z,46.85
2018-10-18T06:39:56.475Z,44.67
2018-10-18T06:40:29.133Z,44.83
2018-10-18T06:41:01.826Z,44.53
2018-10-18T06:41:34.415Z,46.70
2018-10-18T06:42:07.011Z,45.40
2018-10-18T06:42:40.063Z,46.90
2018-10-18T06:43:12.737Z,44.90
2018-10-18T06:43:45.271Z,46.68
2018-10-18T06:44:17.871Z,45.08
2018-10-18T06:44:50.447Z,46.45
2018-10-18T06:45:23.063Z,42.33
2018-10-18T06:45:55.689Z,43.52
2018-10-18T06:46:28.414Z,42.90
2018-10-18T06:47:01.083Z,45.25
2018-10-18T06:47:33.779Z,46.10
2018-10-18T06:48:06.301Z,44.90
2018-10-18T06:48:39.316Z,44.73
2018-10-18T06:49:11.986Z,45.92
2018-10-18T06:49:44.540Z,47.20
2018-10-18T06:50:19.330Z,46.33
2018-10-18T06:50:51.958Z,44.77
2018-10-18T06:51:24.559Z,45.33
2018-10-18T06:51:57.229Z,46.85
2018-10-18T06:52:29.871Z,47.00
2018-10-18T06:53:02.479Z,46.80
2018-10-18T06:53:35.087Z,43.83
2018-10-18T06:54:07.730Z,46.00
2018-10-18T06:54:40.386Z,46.88
2018-10-18T06:55:13.081Z,46.70
2018-10-18T06:55:45.735Z,43.55
2018-10-18T06:56:18.335Z,44.73
2018-10-18T06:56:50.951Z,44.10
2018-10-18T06:57:23.566Z,43.83
2018-10-18T06:57:56.233Z,44.42
2018-10-18T06:58:28.890Z,43.10
2018-10-18T06:59:01.540Z,44.30
2018-10-18T06:59:34.147Z,45.03
2018-10-18T07:00:09.200Z,44.38
2018-10-18T07:00:41.817Z,45.98
2018-10-18T07:01:14.438Z,43.87
2018-10-18T07:01:47.074Z,44.48
2018-10-18T07:02:19.675Z,44.90
2018-10-18T07:02:52.407Z,45.38
2018-10-18T07:03:25.050Z,44.65
2018-10-18T07:03:57.642Z,44.18
2018-10-18T07:04:30.267Z,45.30